Weather observations for the past three days for
Walnut Ridge Regional Airport
Metric (Imperial)
Date Time (cdt) Wind (kph) Vis. (km) Weather Sky Cond. Temperature (ºC) Relative Humidity Wind Chill (°C) Heat Index (°C) Pressure Precipitation (cm)
Air Dwpt 6 hour altimeter (cm) sea level (mb) 1 hr 3 hr 6 hr
Max. Min.
09 14:56 Calm 16.09 Fair CLR 27.8 7.8 28% 27 75.79 1010.5
09 13:56 Vrbl 9 16.09 Fair CLR 26.7 8.3 31% 26 75.84 1011.0
09 12:56 Calm 16.09 NULL NULL 25 12.8 25 13.9 47% 26 75.87 1011.3
09 11:56 Calm 16.09 Fair CLR 23.3 13.3 54% 75.87 1011.5
09 09:56 Calm 16.09 NULL NULL 20.6 13.9 66% 75.87 1011.3
09 08:56 Vrbl 6 16.09 NULL NULL 19.4 13.3 68% 75.87 1011.3
09 07:56 NW 6 16.09 NULL NULL 17.2 12.8 76% 75.84 1010.9
09 06:56 Calm 16.09 NULL NULL 13.9 12.2 18.3 13.3 90% 75.74 1009.8
09 05:56 W 7 16.09 NULL NULL 13.9 11.7 87% 75.72 1009.5
09 04:56 W 7 16.09 Fair CLR 15 11.7 81% 75.72 1009.4
09 03:56 W 11 16.09 Fair CLR 16.1 11.7 75% 75.69 1009.2
09 02:56 Calm 16.09 Fair CLR 15 12.8 87% 0 0.0
09 01:56 SW 13 16.09 Fair CLR 16.1 12.2 78% 75.67 1008.7
09 00:56 SW 17 16.09 A Few Clouds FEW120 18.3 11.7 22.2 17.8 66% 75.72 1009.6
08 23:56 S 19 16.09 Fair CLR 18.9 11.7 63% 75.69 1009.1
08 22:56 S 17 16.09 A Few Clouds FEW120 18.3 11.7 66% 75.72 1009.3
08 21:56 S 17 6.44 Fair with Haze CLR 17.8 11.7 68% 75.74 1009.6
08 20:56 S 15 16.09 Fair CLR 18.3 11.1 63% 75.72 1009.4
08 19:56 S 19 16.09 NULL NULL 19.4 11.1 59% 75.72 1009.4
08 18:56 Calm 16.09 NULL NULL 22.2 10.6 23.9 22.2 48% 75.74 1009.8
08 17:56 S 28 G 35 16.09 NULL NULL 23.3 11.1 46% 75.74 1009.8
08 16:56 S 26 G 33 16.09 NULL NULL 23.3 10.6 45% 75.77 1010.0
08 15:56 S 30 16.09 NULL NULL 23.9 10 42% 25 75.79 1010.5
08 14:56 S 28 G 35 16.09 NULL NULL 23.3 9.4 41% 0 0.0
08 13:56 S 30 16.09 NULL NULL 22.8 10 44% 75.92 1012.0
08 12:56 S 28 G 33 16.09 A Few Clouds FEW002 22.2 11.1 22.2 12.2 50% 76.02 1013.5
08 11:56 S 31 16.09 NULL NULL 21.7 11.1 51% 76.1 1014.5
08 10:56 SW 24 G 35 16.09 NULL NULL 20.6 11.7 57% 76.15 1015.2
08 09:56 S 20 16.09 NULL NULL 19.4 11.7 61% 76.17 1015.7
08 08:56 S 17 16.09 NULL NULL 17.2 11.1 68% 76.23 1016.3
08 07:56 S 13 16.09 NULL NULL 14.4 11.1 81% 76.25 1016.5
08 06:56 S 11 16.09 Fair CLR 12.2 11.1 12.8 10 93% 76.23 1016.1
08 05:56 SW 11 16.09 Fair CLR 10.6 10.6 100% 76.17 1015.5
08 04:56 S 11 16.09 Fair CLR 10.6 10 96% 76.15 1015.3
08 03:56 S 11 16.09 Fair CLR 10.6 10.6 100% 76.17 1015.5
08 02:56 Calm 16.09 Fair CLR 12.2 10 87% 76.2 1015.8
08 01:56 S 6 16.09 Fair CLR 12.2 10.6 90% 0 0.0
08 00:56 S 7 16.09 Fair CLR 12.8 10.6 18.9 12.8 87% 76.25 1016.5
07 23:56 S 9 16.09 Fair CLR 12.8 10 83% 76.23 1016.4
07 22:56 S 9 16.09 Fair CLR 13.3 10.6 84% 76.23 1016.4
07 21:56 S 13 16.09 Fair CLR 14.4 10 75% 76.23 1016.3
07 20:56 SE 11 16.09 Fair CLR 15.6 10 70% 76.17 1015.5
07 19:56 SE 13 16.09 NULL NULL 16.7 8.9 60% 76.15 1015.3
07 18:56 Calm 11.27 NULL NULL 18.9 8.3 20.6 17.8 50% 76.15 1015.1
07 17:56 SE 7 16.09 NULL NULL 20 7.2 44% 76.15 1015.1
07 16:56 Vrbl 6 16.09 A Few Clouds FEW060 20 6.7 42% 76.17 1015.5
07 15:56 Calm 16.09 Partly Cloudy SCT060 20 6.7 42% 76.17 1015.6
07 14:56 Vrbl 9 16.09 Partly Cloudy SCT055 18.9 6.7 45% 76.25 1016.6
07 13:56 Calm 16.09 Fair CLR 18.3 5 42% 76.3 1017.3
07 12:56 Calm 16.09 Fair CLR 17.8 4.4 17.8 11.1 41% 76.35 1017.9
07 11:56 NW 9 16.09 Fair CLR 17.2 6.1 48% 76.4 1018.7
07 10:56 SE 7 16.09 A Few Clouds FEW002 16.1 5 48% 76.4 1018.7
07 09:56 NE 7 16.09 A Few Clouds FEW002 14.4 7.8 65% 76.45 1019.2
07 08:56 N 9 8.05 Fair with Haze CLR 12.8 7.2 69% 76.45 1019.3
07 07:56 Calm 9.66 Fair with Haze CLR 11.1 7.8 80% 76.43 1019.0
07 06:56 N 9 16.09 Fair CLR 8.3 7.8 11.1 7.8 97% 7 76.4 1018.8
07 05:56 Calm 16.09 A Few Clouds FEW002 7.8 7.2 96% 76.33 1017.9
07 04:56 N 11 16.09 Fair CLR 8.3 7.8 97% 7 76.33 1017.7
07 03:56 Calm 16.09 Fair CLR 8.9 8.9 100% 76.33 1017.7
07 02:56 NW 9 16.09 Fair CLR 9.4 9.4 100% 8 76.28 1017.1
07 01:56 NW 9 16.09 Fair CLR 10 10 100% 9 76.28 1017.2
07 00:56 NW 7 16.09 Fair CLR 11.1 11.1 14.4 11.1 100% 76.28 1017.2
06 23:56 Calm 16.09 Fair CLR 12.2 11.1 93% 76.28 1017.1
06 22:56 Calm 16.09 Partly Cloudy SCT095 12.8 11.7 93% 76.25 1016.8
06 21:56 Calm 16.09 Mostly Cloudy BKN100 BKN120 13.3 11.1 87% 76.25 1016.7
06 20:56 N 6 16.09 Mostly Cloudy BKN120 13.3 10.6 84% 76.2 1016.0
06 19:56 Calm 16.09 Mostly Cloudy BKN120 14.4 8.9 70% 76.2 1016.0
06 17:56 E 7 16.09 Fair CLR 14.4 8.3 67% 76.15 1015.2
06 16:56 NE 11 16.09 Light Rain FEW110 14.4 8.9 70% 76.05 1014.1
06 15:56 NE 11 16.09 A Few Clouds FEW036 14.4 7.8 65% 0 0.0
Date Time (cdt) Wind (kph) Vis. (km) Weather Sky Cond. Air Dwpt Max. Min. Relative Humidity Wind Chill (°C) Heat Index (°C) altimeter (cm) sea level (mb) 1 hr 3 hr 6 hr
6 hour
Temperature (ºC) Pressure Precipitation (cm)